createdAt,value
2023-01-18T00:01:21.510Z,3.19
2023-01-18T00:03:49.511Z,2.96
2023-01-18T00:06:18.018Z,3.04
2023-01-18T00:08:45.890Z,2.94
2023-01-18T00:11:16.945Z,2.96
2023-01-18T00:13:45.097Z,3.07
2023-01-18T00:16:19.490Z,3.18
2023-01-18T00:18:58.754Z,3.26
2023-01-18T00:21:27.928Z,3.32
2023-01-18T00:23:56.730Z,3.25
2023-01-18T00:26:24.339Z,3.18
2023-01-18T00:28:52.142Z,3.18
2023-01-18T00:31:21.558Z,3.24
2023-01-18T00:33:50.536Z,3.26
2023-01-18T00:36:19.287Z,3.27
2023-01-18T00:38:54.027Z,3.29
2023-01-18T00:41:22.835Z,3.27
2023-01-18T00:43:51.588Z,3.22
2023-01-18T00:46:27.407Z,3.33
2023-01-18T00:48:57.301Z,3.38
2023-01-18T00:51:26.083Z,3.34
2023-01-18T00:53:54.037Z,3.33
2023-01-18T00:56:23.312Z,3.13
2023-01-18T00:58:51.448Z,3.07
2023-01-18T01:01:19.248Z,3.24
2023-01-18T01:04:05.302Z,3.34
2023-01-18T01:06:45.443Z,3.26
2023-01-18T01:09:39.547Z,3.28
2023-01-18T01:12:25.648Z,3.24
2023-01-18T01:15:11.744Z,3.11
2023-01-18T01:17:57.917Z,3.06
2023-01-18T01:20:45.434Z,3.18
2023-01-18T01:23:44.567Z,3.18
2023-01-18T01:26:12.248Z,3.31
2023-01-18T01:28:50.854Z,3.40
2023-01-18T01:31:22.193Z,3.30
2023-01-18T01:33:52.824Z,3.30
2023-01-18T01:36:28.752Z,3.26
2023-01-18T01:39:03.255Z,3.31
2023-01-18T01:41:35.779Z,3.29
2023-01-18T01:44:20.377Z,3.32
2023-01-18T01:46:57.032Z,3.24
2023-01-18T01:49:36.041Z,3.21
2023-01-18T01:52:06.490Z,3.19
2023-01-18T01:54:58.116Z,3.17
2023-01-18T01:57:33.533Z,3.23
2023-01-18T02:00:08.796Z,3.38
2023-01-18T02:02:47.046Z,3.22
2023-01-18T02:05:17.499Z,3.15
2023-01-18T02:07:45.767Z,3.32
2023-01-18T02:10:13.903Z,3.27
2023-01-18T02:12:44.854Z,3.32
2023-01-18T02:15:13.520Z,3.32
2023-01-18T02:18:08.864Z,3.40
2023-01-18T02:21:02.630Z,3.44
2023-01-18T02:24:10.234Z,3.45
2023-01-18T02:27:04.007Z,3.42
2023-01-18T02:29:54.189Z,3.59
2023-01-18T02:33:08.857Z,3.59
2023-01-18T02:35:57.458Z,3.64
2023-01-18T02:38:34.480Z,3.68
2023-01-18T02:41:14.299Z,3.69
2023-01-18T02:44:02.905Z,3.78
2023-01-18T02:46:35.492Z,3.77
2023-01-18T02:49:09.880Z,3.82
2023-01-18T02:51:38.524Z,3.79
2023-01-18T02:54:09.849Z,3.61
2023-01-18T02:56:51.368Z,3.47
2023-01-18T02:59:40.924Z,3.65
2023-01-18T03:02:19.734Z,3.65
2023-01-18T03:04:56.316Z,3.62
2023-01-18T03:07:28.648Z,3.56
2023-01-18T03:09:58.789Z,3.65
2023-01-18T03:12:45.998Z,3.61
2023-01-18T03:15:45.185Z,3.57
2023-01-18T03:18:37.615Z,3.29
2023-01-18T03:21:08.469Z,3.34
2023-01-18T03:23:42.326Z,3.18
2023-01-18T03:26:19.679Z,3.37
2023-01-18T03:29:12.860Z,3.55
2023-01-18T03:32:05.401Z,3.54
2023-01-18T03:35:08.016Z,3.39
2023-01-18T03:37:43.789Z,3.39
2023-01-18T03:40:23.784Z,3.50
2023-01-18T03:43:08.625Z,3.65
2023-01-18T03:45:46.086Z,3.64
2023-01-18T03:48:14.821Z,3.61
2023-01-18T03:51:00.965Z,3.62
2023-01-18T03:53:35.134Z,3.60
2023-01-18T03:56:18.186Z,3.65
2023-01-18T03:58:49.468Z,3.58
2023-01-18T04:01:17.452Z,3.53
2023-01-18T04:03:45.087Z,3.53
2023-01-18T04:06:12.895Z,3.38
2023-01-18T04:08:40.620Z,3.65
2023-01-18T04:11:08.407Z,3.45
2023-01-18T04:13:36.351Z,3.57
2023-01-18T04:16:05.917Z,3.57
2023-01-18T04:18:33.787Z,3.72
2023-01-18T04:21:01.464Z,3.74
2023-01-18T04:23:29.192Z,3.51
2023-01-18T04:25:56.804Z,3.34
2023-01-18T04:28:26.968Z,3.46
2023-01-18T04:30:56.994Z,3.45
2023-01-18T04:33:26.722Z,3.45
2023-01-18T04:35:54.444Z,3.32
2023-01-18T04:38:23.304Z,3.22
2023-01-18T04:40:51.233Z,2.97
2023-01-18T04:43:19.206Z,3.14
2023-01-18T04:45:56.921Z,3.40
2023-01-18T04:48:28.096Z,3.32
2023-01-18T04:50:56.339Z,3.37
2023-01-18T04:53:24.390Z,3.34
2023-01-18T04:55:52.048Z,3.21
2023-01-18T04:58:19.824Z,3.41
2023-01-18T05:00:47.532Z,3.56
2023-01-18T05:03:16.123Z,3.40
2023-01-18T05:05:43.865Z,3.48
2023-01-18T05:08:11.686Z,3.58
2023-01-18T05:10:39.491Z,3.54
2023-01-18T05:13:32.674Z,3.27
2023-01-18T05:16:02.575Z,3.27
2023-01-18T05:18:32.187Z,3.06
2023-01-18T05:21:00.124Z,3.28
2023-01-18T05:23:27.750Z,3.14
2023-01-18T05:25:57.009Z,3.21
2023-01-18T05:28:27.162Z,3.18
2023-01-18T05:30:55.746Z,3.21
2023-01-18T05:33:23.891Z,3.40
2023-01-18T05:35:54.160Z,3.31
2023-01-18T05:38:23.643Z,3.05
2023-01-18T05:40:54.174Z,3.20
2023-01-18T05:43:26.291Z,3.20
2023-01-18T05:45:54.764Z,3.02
2023-01-18T05:48:24.041Z,3.17
2023-01-18T05:50:52.271Z,2.98
2023-01-18T05:53:22.492Z,2.87
2023-01-18T05:56:01.881Z,2.44
2023-01-18T05:58:29.976Z,2.51
2023-01-18T06:00:58.500Z,2.53
2023-01-18T06:03:26.234Z,2.33
2023-01-18T06:05:54.012Z,2.52
2023-01-18T06:08:21.904Z,2.50
2023-01-18T06:10:55.486Z,2.41
2023-01-18T06:13:25.083Z,2.29
2023-01-18T06:15:54.620Z,2.45
2023-01-18T06:18:24.014Z,2.54
2023-01-18T06:20:59.645Z,2.44
2023-01-18T06:23:29.949Z,2.37
2023-01-18T06:25:57.972Z,2.18
2023-01-18T06:28:26.180Z,2.28
2023-01-18T06:30:56.455Z,2.18
2023-01-18T06:33:24.822Z,2.52
2023-01-18T06:35:52.739Z,2.67
2023-01-18T06:38:21.442Z,2.54
2023-01-18T06:40:49.596Z,2.65
2023-01-18T06:43:17.430Z,2.50
2023-01-18T06:45:47.469Z,2.71
2023-01-18T06:48:15.744Z,2.53
2023-01-18T06:50:43.546Z,2.55
2023-01-18T06:53:11.352Z,2.84
2023-01-18T06:55:39.070Z,3.06
2023-01-18T06:58:09.651Z,3.01
2023-01-18T07:00:37.553Z,2.71
2023-01-18T07:03:05.266Z,2.48
2023-01-18T07:05:32.964Z,2.67
2023-01-18T07:08:03.210Z,2.49
2023-01-18T07:10:31.309Z,2.55
2023-01-18T07:12:59.339Z,2.61
2023-01-18T07:15:27.175Z,2.36
2023-01-18T07:17:54.826Z,2.61
2023-01-18T07:20:23.314Z,2.46
2023-01-18T07:22:52.583Z,2.49
2023-01-18T07:25:20.713Z,2.44
2023-01-18T07:27:49.086Z,2.54
2023-01-18T07:30:17.496Z,2.47
2023-01-18T07:32:51.453Z,2.52
2023-01-18T07:35:22.480Z,2.51
2023-01-18T07:37:53.038Z,2.63
2023-01-18T07:40:23.927Z,2.65
2023-01-18T07:42:58.436Z,2.81
2023-01-18T07:45:26.368Z,2.80
2023-01-18T07:47:54.418Z,2.34
2023-01-18T07:50:22.488Z,2.31
2023-01-18T07:52:50.341Z,2.55
2023-01-18T07:55:18.192Z,2.53
2023-01-18T07:57:45.848Z,2.58
2023-01-18T08:00:14.824Z,2.70
2023-01-18T08:02:42.524Z,2.54
2023-01-18T08:05:10.927Z,2.49
2023-01-18T08:07:38.879Z,2.78
2023-01-18T08:10:06.951Z,2.84
2023-01-18T08:12:34.795Z,2.71
2023-01-18T08:15:02.476Z,2.55
2023-01-18T08:17:30.801Z,2.49
2023-01-18T08:19:58.325Z,2.63
2023-01-18T08:22:25.924Z,2.47
2023-01-18T08:24:53.632Z,2.44
2023-01-18T08:27:21.773Z,2.52
2023-01-18T08:29:49.358Z,2.61
2023-01-18T08:32:17.168Z,2.58
2023-01-18T08:34:44.946Z,2.65
2023-01-18T08:37:12.912Z,2.68
2023-01-18T08:39:40.549Z,2.62
2023-01-18T08:42:11.672Z,2.82
2023-01-18T08:44:39.402Z,2.79
2023-01-18T08:47:07.071Z,2.90
2023-01-18T08:49:37.490Z,2.84
2023-01-18T08:52:05.739Z,2.63
2023-01-18T08:54:33.740Z,2.30
2023-01-18T08:57:02.545Z,2.37
2023-01-18T08:59:30.296Z,2.51
2023-01-18T09:01:58.751Z,2.56
2023-01-18T09:04:29.447Z,2.57
2023-01-18T09:06:57.228Z,2.54
2023-01-18T09:09:24.989Z,2.61
2023-01-18T09:11:52.855Z,2.94
2023-01-18T09:14:20.870Z,2.90
2023-01-18T09:16:48.595Z,3.00
2023-01-18T09:19:16.425Z,2.69
2023-01-18T09:21:46.547Z,2.24
2023-01-18T09:24:14.366Z,2.51
2023-01-18T09:26:44.438Z,2.89
2023-01-18T09:29:13.009Z,3.00
2023-01-18T09:31:40.626Z,2.80
2023-01-18T09:34:18.786Z,2.89
2023-01-18T09:36:50.996Z,3.19
2023-01-18T09:39:20.940Z,3.06
2023-01-18T09:42:04.642Z,3.31
2023-01-18T09:44:38.395Z,3.48
2023-01-18T09:47:34.237Z,3.58
2023-01-18T09:50:14.855Z,3.57
2023-01-18T09:53:23.877Z,3.48
2023-01-18T09:56:09.830Z,3.68
2023-01-18T09:58:54.641Z,3.64
2023-01-18T10:01:31.662Z,4.06
2023-01-18T10:04:22.492Z,3.92
2023-01-18T10:06:57.037Z,4.17
2023-01-18T10:09:36.823Z,3.93
2023-01-18T10:12:34.741Z,4.22
2023-01-18T10:15:22.186Z,3.90
2023-01-18T10:17:56.161Z,3.58
2023-01-18T10:20:35.563Z,3.46
2023-01-18T10:23:19.698Z,3.79
2023-01-18T10:26:09.637Z,3.83
2023-01-18T10:28:55.220Z,4.08
2023-01-18T10:31:37.759Z,4.06
2023-01-18T10:34:22.370Z,4.24
2023-01-18T10:37:14.468Z,4.05
2023-01-18T10:39:51.941Z,4.02
2023-01-18T10:42:49.309Z,4.07
2023-01-18T10:45:21.582Z,4.07
2023-01-18T10:47:52.295Z,4.09
2023-01-18T10:50:45.153Z,4.25
2023-01-18T10:53:37.612Z,4.38
2023-01-18T10:56:10.747Z,4.15
2023-01-18T10:58:50.327Z,3.91
2023-01-18T11:01:23.747Z,4.05
2023-01-18T11:04:08.244Z,4.21
2023-01-18T11:06:56.809Z,3.84
2023-01-18T11:09:48.752Z,4.26
2023-01-18T11:12:38.787Z,4.23
2023-01-18T11:15:18.931Z,4.64
2023-01-18T11:18:02.078Z,4.82
2023-01-18T11:20:49.976Z,4.66
2023-01-18T11:23:25.735Z,4.77
2023-01-18T11:25:56.628Z,4.23
2023-01-18T11:28:39.247Z,4.22
2023-01-18T11:31:15.103Z,4.05
2023-01-18T11:34:03.186Z,4.08
2023-01-18T11:36:44.822Z,4.07
2023-01-18T11:39:36.703Z,4.21
2023-01-18T11:42:22.361Z,4.14
2023-01-18T11:44:57.885Z,4.27
2023-01-18T11:47:44.388Z,3.99
2023-01-18T11:50:29.880Z,4.04
2023-01-18T11:53:21.758Z,4.09
2023-01-18T11:56:06.480Z,4.05
2023-01-18T11:58:36.434Z,4.17
2023-01-18T12:01:43.369Z,4.26
2023-01-18T12:04:43.915Z,4.52
2023-01-18T12:07:39.530Z,4.76
2023-01-18T12:10:20.783Z,4.86
2023-01-18T12:13:22.914Z,4.94
2023-01-18T12:16:24.933Z,4.38
2023-01-18T12:19:04.402Z,4.28
2023-01-18T12:22:19.596Z,3.96
2023-01-18T12:25:01.380Z,4.01
2023-01-18T12:27:53.041Z,4.15
2023-01-18T12:31:03.026Z,4.33
2023-01-18T12:33:54.460Z,4.22
2023-01-18T12:36:40.073Z,3.90
2023-01-18T12:39:28.987Z,4.34
2023-01-18T12:42:49.951Z,4.26
2023-01-18T12:45:41.987Z,4.27
2023-01-18T12:48:16.699Z,4.62
2023-01-18T12:50:49.944Z,4.54
2023-01-18T12:53:40.304Z,4.56
2023-01-18T12:56:22.448Z,4.38
2023-01-18T12:59:00.788Z,4.53
2023-01-18T13:01:37.712Z,4.84
2023-01-18T13:04:26.523Z,4.86
2023-01-18T13:07:02.568Z,4.80
2023-01-18T13:09:38.947Z,4.92
2023-01-18T13:12:07.533Z,4.90
2023-01-18T13:15:01.720Z,5.06
2023-01-18T13:17:56.362Z,4.83
2023-01-18T13:20:48.356Z,5.06
2023-01-18T13:23:56.669Z,5.30
2023-01-18T13:26:34.074Z,5.20
2023-01-18T13:29:17.078Z,5.22
2023-01-18T13:31:46.039Z,5.40
2023-01-18T13:34:47.770Z,5.04
2023-01-18T13:37:48.635Z,5.09
2023-01-18T13:40:36.711Z,5.18
2023-01-18T13:43:29.895Z,4.97
2023-01-18T13:46:09.899Z,5.06
2023-01-18T13:49:36.223Z,5.32
2023-01-18T13:52:32.556Z,5.44
2023-01-18T13:55:25.048Z,5.31
2023-01-18T13:57:56.505Z,5.17
2023-01-18T14:00:26.189Z,5.16
2023-01-18T14:03:04.739Z,5.25
2023-01-18T14:05:45.756Z,5.38
2023-01-18T14:08:22.824Z,5.18
2023-01-18T14:10:57.152Z,5.05
2023-01-18T14:13:49.982Z,5.30
2023-01-18T14:16:25.514Z,4.68
2023-01-18T14:19:12.722Z,4.90
2023-01-18T14:22:25.163Z,4.83
2023-01-18T14:25:24.949Z,4.65
2023-01-18T14:28:08.396Z,4.64
2023-01-18T14:30:39.041Z,4.75
2023-01-18T14:33:23.694Z,4.35
2023-01-18T14:36:01.567Z,4.49
2023-01-18T14:38:30.728Z,4.69
2023-01-18T14:41:07.055Z,4.49
2023-01-18T14:43:49.318Z,4.68
2023-01-18T14:46:24.753Z,4.78
2023-01-18T14:48:57.265Z,4.88
2023-01-18T14:51:32.100Z,5.00
2023-01-18T14:54:02.893Z,4.94
2023-01-18T14:56:34.761Z,4.90
2023-01-18T14:59:21.492Z,5.15
2023-01-18T15:02:14.857Z,5.22
2023-01-18T15:04:46.550Z,5.28
2023-01-18T15:07:22.878Z,5.38
2023-01-18T15:09:51.093Z,5.04
2023-01-18T15:12:28.979Z,5.06
2023-01-18T15:15:13.627Z,4.88
2023-01-18T15:17:46.760Z,5.21
2023-01-18T15:20:15.808Z,5.22
2023-01-18T15:22:43.916Z,5.20
2023-01-18T15:25:30.226Z,4.90
2023-01-18T15:28:18.435Z,4.89
2023-01-18T15:30:56.182Z,4.87
2023-01-18T15:33:27.114Z,4.95
2023-01-18T15:35:59.442Z,4.99
2023-01-18T15:38:29.006Z,5.01
2023-01-18T15:41:11.140Z,5.04
2023-01-18T15:43:44.599Z,4.80
2023-01-18T15:46:16.599Z,4.87
2023-01-18T15:48:58.047Z,4.86
2023-01-18T15:51:44.218Z,5.02
2023-01-18T15:54:26.777Z,5.12
2023-01-18T15:56:58.863Z,4.81
2023-01-18T15:59:28.091Z,4.77
2023-01-18T16:02:25.495Z,4.79
2023-01-18T16:05:21.791Z,4.79
2023-01-18T16:07:53.167Z,4.55
2023-01-18T16:10:30.276Z,4.49
2023-01-18T16:13:39.348Z,4.54
2023-01-18T16:16:20.283Z,4.41
2023-01-18T16:18:52.344Z,4.21
2023-01-18T16:21:43.188Z,4.26
2023-01-18T16:24:36.436Z,4.43
2023-01-18T16:27:32.009Z,4.44
2023-01-18T16:30:14.792Z,4.37
2023-01-18T16:32:42.552Z,4.59
2023-01-18T16:35:15.936Z,4.46
2023-01-18T16:37:44.710Z,4.29
2023-01-18T16:40:22.931Z,4.15
2023-01-18T16:43:02.269Z,4.24
2023-01-18T16:45:34.038Z,4.15
2023-01-18T16:48:02.670Z,4.09
2023-01-18T16:50:31.005Z,4.15
2023-01-18T16:52:58.823Z,4.14
2023-01-18T16:55:27.251Z,4.08
2023-01-18T16:58:06.675Z,4.07
2023-01-18T17:01:10.202Z,4.05
2023-01-18T17:03:39.429Z,4.02
2023-01-18T17:06:07.436Z,4.08
2023-01-18T17:08:35.090Z,4.20
2023-01-18T17:11:02.909Z,4.22
2023-01-18T17:13:30.722Z,4.29
2023-01-18T17:15:58.610Z,4.20
2023-01-18T17:18:27.717Z,4.24
2023-01-18T17:20:56.231Z,4.32
2023-01-18T17:23:25.587Z,4.30
2023-01-18T17:25:53.343Z,4.22
2023-01-18T17:28:20.907Z,4.14
2023-01-18T17:30:50.113Z,4.10
2023-01-18T17:33:24.956Z,4.07
2023-01-18T17:35:54.803Z,4.16
2023-01-18T17:38:25.054Z,4.16
2023-01-18T17:40:54.172Z,4.20
2023-01-18T17:43:33.290Z,3.89
2023-01-18T17:46:06.574Z,3.62
2023-01-18T17:48:34.879Z,3.76
2023-01-18T17:51:09.747Z,3.59
2023-01-18T17:53:39.845Z,3.49
2023-01-18T17:56:16.941Z,3.83
2023-01-18T17:58:49.414Z,3.95
2023-01-18T18:01:18.854Z,3.93
2023-01-18T18:03:49.666Z,4.00
2023-01-18T18:06:30.064Z,3.97
2023-01-18T18:09:00.148Z,3.99
2023-01-18T18:11:28.460Z,4.01
2023-01-18T18:13:56.794Z,3.98
2023-01-18T18:16:25.693Z,4.01
2023-01-18T18:18:53.804Z,3.94
2023-01-18T18:21:23.265Z,3.78
2023-01-18T18:23:51.358Z,3.79
2023-01-18T18:26:19.363Z,3.80
2023-01-18T18:28:47.304Z,3.86
2023-01-18T18:31:16.331Z,3.77
2023-01-18T18:33:44.137Z,3.56
2023-01-18T18:36:11.772Z,3.34
2023-01-18T18:38:42.000Z,3.44
2023-01-18T18:41:09.867Z,3.48
2023-01-18T18:43:37.489Z,3.41
2023-01-18T18:46:05.383Z,3.49
2023-01-18T18:48:33.182Z,3.55
2023-01-18T18:51:01.081Z,3.49
2023-01-18T18:53:37.513Z,3.56
2023-01-18T18:56:09.257Z,3.59
2023-01-18T18:58:39.517Z,3.48
2023-01-18T19:01:11.670Z,3.45
2023-01-18T19:03:39.452Z,3.37
2023-01-18T19:06:07.188Z,3.49
2023-01-18T19:08:34.982Z,3.45
2023-01-18T19:11:02.972Z,3.38
2023-01-18T19:13:30.823Z,3.38
2023-01-18T19:15:58.514Z,3.39
2023-01-18T19:18:31.754Z,3.42
2023-01-18T19:20:59.705Z,3.24
2023-01-18T19:23:28.302Z,3.37
2023-01-18T19:25:58.921Z,3.42
2023-01-18T19:28:26.688Z,3.22
2023-01-18T19:30:54.959Z,3.32
2023-01-18T19:33:22.572Z,3.32
2023-01-18T19:35:50.211Z,3.34
2023-01-18T19:38:17.963Z,3.38
2023-01-18T19:40:45.710Z,3.22
2023-01-18T19:43:13.373Z,3.19
2023-01-18T19:45:41.078Z,3.17
2023-01-18T19:48:08.744Z,3.12
2023-01-18T19:50:36.397Z,3.12
2023-01-18T19:53:04.220Z,3.14
2023-01-18T19:55:31.974Z,3.14
2023-01-18T19:58:01.595Z,3.20
2023-01-18T20:00:30.380Z,3.17
2023-01-18T20:03:00.004Z,3.10
2023-01-18T20:05:28.513Z,3.14
2023-01-18T20:07:56.854Z,2.96
2023-01-18T20:10:24.752Z,2.93
2023-01-18T20:12:52.758Z,2.80
2023-01-18T20:15:21.189Z,2.87
2023-01-18T20:17:48.918Z,2.86
2023-01-18T20:20:24.276Z,2.89
2023-01-18T20:23:02.598Z,2.88
2023-01-18T20:25:31.790Z,2.73
2023-01-18T20:27:59.609Z,2.75
2023-01-18T20:30:27.269Z,2.54
2023-01-18T20:32:55.157Z,2.51
2023-01-18T20:35:22.952Z,2.24
2023-01-18T20:37:52.107Z,2.16
2023-01-18T20:40:19.864Z,1.99
2023-01-18T20:42:47.822Z,2.24
2023-01-18T20:45:16.119Z,2.40
2023-01-18T20:47:44.811Z,2.52
2023-01-18T20:50:12.873Z,2.53
2023-01-18T20:52:41.924Z,2.67
2023-01-18T20:55:13.224Z,2.76
2023-01-18T20:57:41.238Z,2.78
2023-01-18T21:00:12.466Z,2.83
2023-01-18T21:02:43.489Z,2.86
2023-01-18T21:05:11.798Z,2.81
2023-01-18T21:07:41.694Z,2.89
2023-01-18T21:10:11.582Z,2.63
2023-01-18T21:12:41.185Z,2.88
2023-01-18T21:15:09.907Z,2.81
2023-01-18T21:17:37.751Z,2.67
2023-01-18T21:20:05.880Z,2.45
2023-01-18T21:22:33.659Z,2.26
2023-01-18T21:25:01.306Z,2.10
2023-01-18T21:27:29.059Z,2.36
2023-01-18T21:29:56.838Z,2.55
2023-01-18T21:32:24.703Z,2.68
2023-01-18T21:34:52.436Z,2.66
2023-01-18T21:37:20.065Z,2.63
2023-01-18T21:39:47.686Z,2.47
2023-01-18T21:42:33.593Z,2.38
2023-01-18T21:45:19.554Z,2.37
2023-01-18T21:47:47.438Z,2.29
2023-01-18T21:50:34.159Z,1.84
2023-01-18T21:53:20.449Z,1.78
2023-01-18T21:55:48.359Z,1.84
2023-01-18T21:58:35.105Z,1.66
2023-01-18T22:01:30.652Z,1.89
2023-01-18T22:04:21.141Z,1.83
2023-01-18T22:06:49.695Z,2.08
2023-01-18T22:09:17.684Z,2.21
2023-01-18T22:11:45.691Z,2.20
2023-01-18T22:14:13.791Z,2.23
2023-01-18T22:16:41.800Z,2.03
2023-01-18T22:19:11.771Z,2.13
2023-01-18T22:21:39.558Z,2.21
2023-01-18T22:24:07.633Z,2.27
2023-01-18T22:26:36.461Z,2.24
2023-01-18T22:29:04.751Z,2.18
2023-01-18T22:31:33.369Z,2.02
2023-01-18T22:34:02.114Z,2.14
2023-01-18T22:36:30.857Z,2.08
2023-01-18T22:38:58.832Z,2.03
2023-01-18T22:41:30.100Z,2.07
2023-01-18T22:43:57.745Z,1.99
2023-01-18T22:46:25.738Z,2.02
2023-01-18T22:48:53.433Z,2.02
2023-01-18T22:51:23.650Z,2.05
2023-01-18T22:53:52.195Z,1.89
2023-01-18T22:56:23.275Z,1.93
2023-01-18T22:58:52.032Z,1.88
2023-01-18T23:01:25.113Z,1.89
2023-01-18T23:03:55.993Z,1.89
2023-01-18T23:06:24.372Z,1.82
2023-01-18T23:08:54.289Z,1.82
2023-01-18T23:11:25.583Z,1.68
2023-01-18T23:14:15.817Z,1.62
2023-01-18T23:17:03.095Z,1.54
2023-01-18T23:19:31.232Z,1.60
2023-01-18T23:21:59.380Z,1.62
2023-01-18T23:24:27.710Z,1.56
2023-01-18T23:26:55.237Z,1.56
2023-01-18T23:29:22.979Z,1.53
2023-01-18T23:31:50.513Z,1.48
2023-01-18T23:34:18.153Z,1.52
2023-01-18T23:36:45.823Z,1.48
2023-01-18T23:39:32.135Z,1.41
2023-01-18T23:42:24.503Z,1.37
2023-01-18T23:45:10.604Z,1.25
2023-01-18T23:47:57.365Z,1.06
2023-01-18T23:50:44.173Z,1.10
2023-01-18T23:53:32.586Z,1.10
2023-01-18T23:56:00.617Z,1.17
2023-01-18T23:58:28.455Z,1.15
